createdAt,value
2023-05-24T00:00:38.161Z,21
2023-05-24T00:01:54.428Z,20.2
2023-05-24T00:03:10.659Z,21.3
2023-05-24T00:04:26.909Z,23.4
2023-05-24T00:05:43.160Z,22.5
2023-05-24T00:06:59.409Z,20.6
2023-05-24T00:08:15.659Z,23.9
2023-05-24T00:09:31.907Z,23.2
2023-05-24T00:10:48.157Z,20.2
2023-05-24T00:12:04.402Z,22.3
2023-05-24T00:13:20.659Z,21.7
2023-05-24T00:14:35.958Z,21.9
2023-05-24T00:15:52.217Z,25.2
2023-05-24T00:17:08.452Z,20.5
2023-05-24T00:18:24.707Z,23.3
2023-05-24T00:19:40.954Z,23
2023-05-24T00:20:57.208Z,22.4
2023-05-24T00:22:13.452Z,20.8
2023-05-24T00:23:29.699Z,21.6
2023-05-24T00:24:45.952Z,24.5
2023-05-24T00:26:02.193Z,21.7
2023-05-24T00:27:18.446Z,21.1
2023-05-24T00:28:34.693Z,23.5
2023-05-24T00:29:50.944Z,23.2
2023-05-24T00:31:06.259Z,19.9
2023-05-24T00:32:22.522Z,22.6
2023-05-24T00:33:38.751Z,24
2023-05-24T00:34:54.999Z,21.9
2023-05-24T00:36:11.249Z,23.9
2023-05-24T00:37:27.502Z,22.9
2023-05-24T00:38:43.749Z,23.2
2023-05-24T00:39:59.996Z,22.7
2023-05-24T00:41:16.252Z,20.4
2023-05-24T00:42:23.000Z,22.3
2023-05-24T00:43:48.747Z,22.9
2023-05-24T00:45:04.985Z,20.5
2023-05-24T00:46:21.235Z,19.9
2023-05-24T00:47:36.545Z,19.8
2023-05-24T00:48:52.790Z,24.3
2023-05-24T00:50:09.043Z,21.6
2023-05-24T00:51:25.288Z,23
2023-05-24T00:52:41.541Z,19.8
2023-05-24T00:53:57.788Z,22.4
2023-05-24T00:55:14.034Z,20.4
2023-05-24T00:56:30.280Z,25.9
2023-05-24T00:57:46.530Z,21.5
2023-05-24T00:59:02.778Z,21
2023-05-24T01:00:19.035Z,19.8
2023-05-24T01:01:35.287Z,20.3
2023-05-24T01:02:51.540Z,21.2
2023-05-24T01:04:06.848Z,22.3
2023-05-24T01:05:23.084Z,22.6
2023-05-24T01:06:39.401Z,20.2
2023-05-24T01:07:55.572Z,22.6
2023-05-24T01:09:03.000Z,20.5
2023-05-24T01:10:28.084Z,19.9
2023-05-24T01:11:44.320Z,22
2023-05-24T01:13:00.582Z,22.3
2023-05-24T01:14:16.828Z,20.2
2023-05-24T01:15:33.076Z,19.9
2023-05-24T01:16:49.322Z,20.5
2023-05-24T01:18:05.583Z,22.5
2023-05-24T01:19:21.823Z,22.6
2023-05-24T01:20:37.123Z,19.4
2023-05-24T01:21:53.445Z,21.5
2023-05-24T01:23:09.686Z,21.4
2023-05-24T01:24:25.940Z,24.5
2023-05-24T01:25:42.193Z,21.9
2023-05-24T01:26:58.447Z,19.7
2023-05-24T01:28:14.686Z,21.5
2023-05-24T01:29:30.940Z,20.8
2023-05-24T01:30:47.193Z,22.5
2023-05-24T01:31:54.000Z,21.2
2023-05-24T01:33:19.689Z,21.2
2023-05-24T01:34:35.947Z,23.3
2023-05-24T01:35:52.214Z,20.2
2023-05-24T01:37:07.499Z,22.9
2023-05-24T01:38:23.752Z,20.2
2023-05-24T01:39:39.998Z,19.3
2023-05-24T01:40:56.253Z,19.2
2023-05-24T01:42:12.509Z,19.5
2023-05-24T01:43:28.758Z,21.9
2023-05-24T01:44:44.994Z,21.6
2023-05-24T01:46:01.253Z,21.5
2023-05-24T01:47:17.498Z,20.1
2023-05-24T01:48:33.758Z,18.2
2023-05-24T01:49:49.997Z,19.5
2023-05-24T01:51:06.247Z,19.5
2023-05-24T01:52:13.000Z,21
2023-05-24T01:53:37.809Z,19.1
2023-05-24T01:54:54.063Z,20.8
2023-05-24T01:56:10.308Z,20.8
2023-05-24T01:57:26.557Z,25.7
2023-05-24T01:58:42.808Z,19
2023-05-24T01:59:59.057Z,23.5
2023-05-24T02:01:15.310Z,19.7
2023-05-24T02:02:31.554Z,20.8
2023-05-24T02:03:47.814Z,23.5
2023-05-24T02:05:04.061Z,21.6
2023-05-24T02:06:11.000Z,20.9
2023-05-24T02:07:36.586Z,23.9
2023-05-24T02:08:52.831Z,22.7
2023-05-24T02:10:08.143Z,20.5
2023-05-24T02:12:40.645Z,21.9
2023-05-24T02:13:56.898Z,19.4
2023-05-24T02:15:13.147Z,24.1
2023-05-24T02:16:29.386Z,23.4
2023-05-24T02:17:45.645Z,21.1
2023-05-24T02:19:01.887Z,24.1
2023-05-24T02:20:18.142Z,19.8
2023-05-24T02:21:34.391Z,22.7
2023-05-24T02:22:50.646Z,23.3
2023-05-24T02:24:06.889Z,21.3
2023-05-24T02:25:23.135Z,21.6
2023-05-24T02:26:39.392Z,20
2023-05-24T02:27:54.699Z,22
2023-05-24T02:29:10.957Z,20.8
2023-05-24T02:30:27.207Z,20
2023-05-24T02:31:42.521Z,18.3
2023-05-24T02:32:58.766Z,21.5
2023-05-24T02:34:15.022Z,21
2023-05-24T02:35:31.265Z,21.3
2023-05-24T02:36:47.524Z,27.3
2023-05-24T02:38:03.772Z,21.8
2023-05-24T02:39:20.035Z,22.7
2023-05-24T02:40:36.271Z,20.1
2023-05-24T02:41:52.518Z,19.6
2023-05-24T02:43:08.788Z,23
2023-05-24T02:44:25.030Z,20.9
2023-05-24T02:45:41.268Z,21.6
2023-05-24T02:46:57.521Z,20.9
2023-05-24T02:48:12.835Z,22.6
2023-05-24T02:49:29.080Z,20.7
2023-05-24T02:50:45.324Z,20.7
2023-05-24T02:52:01.574Z,19.6
2023-05-24T02:53:17.854Z,17.2
2023-05-24T02:54:34.087Z,22.3
2023-05-24T02:55:50.328Z,19
2023-05-24T02:57:06.585Z,23.5
2023-05-24T02:58:22.843Z,20.1
2023-05-24T02:59:39.096Z,21.5
2023-05-24T03:00:55.334Z,23.2
2023-05-24T03:02:11.579Z,23
2023-05-24T03:03:27.835Z,23
2023-05-24T03:04:43.131Z,22.7
2023-05-24T03:05:59.386Z,19.6
2023-05-24T03:07:15.634Z,24.4
2023-05-24T03:08:31.907Z,20.3
2023-05-24T03:09:48.135Z,21.9
2023-05-24T03:11:04.388Z,23.9
2023-05-24T03:12:20.641Z,21
2023-05-24T03:13:36.887Z,21.2
2023-05-24T03:14:53.138Z,22.2
2023-05-24T03:16:09.386Z,23.2
2023-05-24T03:17:25.639Z,21.8
2023-05-24T03:18:41.887Z,21.3
2023-05-24T03:19:58.150Z,20.9
2023-05-24T03:21:13.431Z,19.1
2023-05-24T03:22:29.689Z,19.5
2023-05-24T03:23:45.944Z,22
2023-05-24T03:25:02.185Z,22.6
2023-05-24T03:26:18.436Z,21.2
2023-05-24T03:27:34.679Z,20.9
2023-05-24T03:28:50.934Z,20.8
2023-05-24T03:30:07.194Z,24.2
2023-05-24T03:31:23.434Z,19.6
2023-05-24T03:33:55.940Z,22.3
2023-05-24T03:35:12.183Z,20.1
2023-05-24T03:36:28.438Z,20.8
2023-05-24T03:37:43.734Z,20
2023-05-24T03:38:59.989Z,24.6
2023-05-24T03:41:32.490Z,25.2
2023-05-24T03:42:48.732Z,21
2023-05-24T03:44:04.990Z,21.3
2023-05-24T03:45:21.232Z,23.1
2023-05-24T03:46:37.479Z,17.8
2023-05-24T03:47:53.743Z,20.5
2023-05-24T03:49:09.986Z,21.2
2023-05-24T03:50:26.244Z,20.8
2023-05-24T03:51:42.494Z,22.5
2023-05-24T03:52:58.740Z,20.5
2023-05-24T03:54:14.054Z,16.5
2023-05-24T03:55:30.302Z,20.5
2023-05-24T03:56:46.547Z,20.3
2023-05-24T03:58:02.796Z,21.3
2023-05-24T03:59:19.054Z,19.5
2023-05-24T04:00:35.305Z,21.8
2023-05-24T04:01:51.559Z,24.1
2023-05-24T04:03:07.804Z,22.2
2023-05-24T04:04:24.057Z,21
2023-05-24T04:05:40.308Z,20
2023-05-24T04:06:56.569Z,23.2
2023-05-24T04:08:12.808Z,21.2
2023-05-24T04:10:45.311Z,20.6
2023-05-24T04:12:00.609Z,28.1
2023-05-24T04:13:16.858Z,22.3
2023-05-24T04:14:33.109Z,21.8
2023-05-24T04:15:40.000Z,20.3
2023-05-24T04:17:05.613Z,20.7
2023-05-24T04:18:21.858Z,23.1
2023-05-24T04:19:38.117Z,22.8
2023-05-24T04:20:54.359Z,21.8
2023-05-24T04:22:10.615Z,23.7
2023-05-24T04:23:26.857Z,23.2
2023-05-24T04:24:43.000Z,24.2
2023-05-24T04:25:59.362Z,28
2023-05-24T04:27:15.616Z,23.1
2023-05-24T04:28:30.911Z,23.5
2023-05-24T04:29:47.167Z,22
2023-05-24T04:31:03.418Z,19.2
2023-05-24T04:32:19.666Z,21.4
2023-05-24T04:33:35.924Z,21.7
2023-05-24T04:34:52.162Z,22.2
2023-05-24T04:36:08.423Z,23.3
2023-05-24T04:37:24.667Z,21.5
2023-05-24T04:38:40.924Z,34.5
2023-05-24T04:39:57.173Z,64.2
2023-05-24T04:41:13.424Z,41.7
2023-05-24T04:42:29.672Z,39.1
2023-05-24T04:43:45.920Z,34.8
2023-05-24T04:45:01.226Z,47.4
2023-05-24T04:46:17.471Z,37.3
2023-05-24T04:47:33.758Z,49.2
2023-05-24T04:48:49.971Z,38.6
2023-05-24T04:50:06.218Z,36.7
2023-05-24T04:51:22.468Z,44.3
2023-05-24T04:52:38.721Z,57.6
2023-05-24T04:53:54.968Z,47.2
2023-05-24T04:56:27.464Z,42.7
2023-05-24T04:57:43.720Z,49.3
2023-05-24T04:58:59.976Z,40.7
2023-05-24T05:00:16.225Z,36.9
2023-05-24T05:01:31.514Z,30.2
2023-05-24T05:02:47.771Z,44
2023-05-24T05:04:04.012Z,48.1
2023-05-24T05:05:20.281Z,37.6
2023-05-24T05:06:36.516Z,40.1
2023-05-24T05:07:52.764Z,39.1
2023-05-24T05:09:09.021Z,34.9
2023-05-24T05:10:25.266Z,35.8
2023-05-24T05:11:41.517Z,36.7
2023-05-24T05:12:57.772Z,31.8
2023-05-24T05:14:14.051Z,41.7
2023-05-24T05:15:30.268Z,39.4
2023-05-24T05:16:46.521Z,35.9
2023-05-24T05:18:01.824Z,34
2023-05-24T05:19:18.075Z,30.3
2023-05-24T05:20:34.329Z,33.1
2023-05-24T05:21:50.583Z,30.1
2023-05-24T05:23:06.835Z,28.7
2023-05-24T05:24:23.077Z,27.2
2023-05-24T05:25:39.334Z,28.1
2023-05-24T05:26:55.580Z,26.6
2023-05-24T05:28:11.836Z,27.1
2023-05-24T05:29:28.072Z,25.9
2023-05-24T05:30:44.332Z,26.2
2023-05-24T05:32:00.585Z,28.1
2023-05-24T05:33:16.839Z,27.4
2023-05-24T05:34:33.080Z,30.6
2023-05-24T05:35:48.382Z,26.8
2023-05-24T05:37:04.635Z,25.2
2023-05-24T05:38:20.886Z,26.9
2023-05-24T05:39:37.134Z,25.8
2023-05-24T05:40:53.381Z,27
2023-05-24T05:42:09.637Z,28.9
2023-05-24T05:43:25.884Z,27.5
2023-05-24T05:44:42.130Z,29.3
2023-05-24T05:45:58.384Z,30.8
2023-05-24T05:47:14.629Z,30.3
2023-05-24T05:48:30.884Z,27
2023-05-24T05:49:47.138Z,32
2023-05-24T05:51:03.381Z,30.3
2023-05-24T05:52:18.702Z,29.9
2023-05-24T05:53:34.938Z,29.5
2023-05-24T05:54:51.193Z,33.1
2023-05-24T05:56:07.438Z,30.7
2023-05-24T05:57:23.698Z,26.4
2023-05-24T05:58:39.943Z,30
2023-05-24T05:59:56.203Z,25.3
2023-05-24T06:01:12.447Z,27.2
2023-05-24T06:02:28.706Z,26.5
2023-05-24T06:03:44.947Z,26.6
2023-05-24T06:04:52.000Z,28.5
2023-05-24T06:06:17.450Z,24.7
2023-05-24T06:07:33.693Z,27.8
2023-05-24T06:08:49.953Z,27.1
2023-05-24T06:09:56.000Z,27.6
2023-05-24T06:11:21.496Z,25.7
2023-05-24T06:12:37.742Z,24.2
2023-05-24T06:13:53.993Z,26.4
2023-05-24T06:15:10.249Z,27.2
2023-05-24T06:16:26.494Z,29.5
2023-05-24T06:17:42.742Z,30.7
2023-05-24T06:18:58.999Z,26.4
2023-05-24T06:20:15.247Z,30
2023-05-24T06:21:31.499Z,25.6
2023-05-24T06:22:47.746Z,29.7
2023-05-24T06:24:03.997Z,27.3
2023-05-24T06:25:20.247Z,29.2
2023-05-24T06:26:35.000Z,28.6
2023-05-24T06:27:51.816Z,28.3
2023-05-24T06:29:08.059Z,26
2023-05-24T06:30:24.316Z,27.8
2023-05-24T06:31:40.553Z,25.8
2023-05-24T06:32:56.806Z,26.7
2023-05-24T06:34:13.056Z,28.7
2023-05-24T06:35:29.316Z,28.3
2023-05-24T06:36:45.557Z,31.5
2023-05-24T06:38:01.810Z,33.1
2023-05-24T06:39:18.056Z,29.5
2023-05-24T06:40:34.313Z,28.3
2023-05-24T06:41:50.557Z,29
2023-05-24T06:43:06.810Z,30.6
2023-05-24T06:44:22.108Z,30.4
2023-05-24T06:45:38.358Z,36
2023-05-24T06:46:53.674Z,35
2023-05-24T06:48:09.930Z,30.9
2023-05-24T06:49:26.172Z,27.4
2023-05-24T06:50:42.423Z,28.3
2023-05-24T06:51:58.681Z,29.8
2023-05-24T06:53:14.929Z,31.2
2023-05-24T06:54:31.177Z,30.1
2023-05-24T06:55:47.425Z,33
2023-05-24T06:57:03.675Z,34.3
2023-05-24T06:58:19.928Z,29.7
2023-05-24T06:59:36.176Z,28.8
2023-05-24T07:00:52.419Z,31.2
2023-05-24T07:02:08.678Z,34.6
2023-05-24T07:03:23.977Z,33.8
2023-05-24T07:04:40.246Z,31.8
2023-05-24T07:05:56.470Z,30.6
2023-05-24T07:07:12.717Z,30.7
2023-05-24T07:08:28.970Z,31.7
2023-05-24T07:09:45.217Z,30.5
2023-05-24T07:11:01.473Z,32.2
2023-05-24T07:12:17.726Z,31.7
2023-05-24T07:13:33.973Z,32.5
2023-05-24T07:14:50.223Z,32.2
2023-05-24T07:16:06.480Z,31.8
2023-05-24T07:17:22.723Z,29.7
2023-05-24T07:18:38.973Z,29.8
2023-05-24T07:19:54.285Z,33.9
2023-05-24T07:21:10.527Z,32.3
2023-05-24T07:22:26.783Z,35.2
2023-05-24T07:23:43.035Z,33.8
2023-05-24T07:24:59.279Z,30.3
2023-05-24T07:26:15.543Z,34.9
2023-05-24T07:27:31.785Z,33.1
2023-05-24T07:28:48.032Z,33.9
2023-05-24T07:30:04.281Z,29.7
2023-05-24T07:31:20.540Z,32.5
2023-05-24T07:32:36.781Z,34.6
2023-05-24T07:33:44.000Z,33.9
2023-05-24T07:35:09.290Z,35.6
2023-05-24T07:36:24.578Z,33.4
2023-05-24T07:37:40.838Z,34.8
2023-05-24T07:38:57.088Z,35.1
2023-05-24T07:40:13.338Z,33.6
2023-05-24T07:41:29.581Z,34
2023-05-24T07:42:45.837Z,34.2
2023-05-24T07:44:02.082Z,31.2
2023-05-24T07:45:18.334Z,35.3
2023-05-24T07:46:34.589Z,33
2023-05-24T07:47:50.843Z,37.5
2023-05-24T07:49:07.102Z,37.8
2023-05-24T07:50:23.337Z,34.2
2023-05-24T07:51:39.580Z,36.7
2023-05-24T07:52:55.840Z,33.6
2023-05-24T07:54:11.146Z,50.3
2023-05-24T07:55:27.397Z,36
2023-05-24T07:56:43.651Z,46.4
2023-05-24T07:57:59.907Z,40.9
2023-05-24T07:59:16.138Z,49.6
2023-05-24T08:00:32.401Z,40.4
2023-05-24T08:01:48.646Z,46.9
2023-05-24T08:03:04.891Z,47.2
2023-05-24T08:04:21.149Z,48.8
2023-05-24T08:05:37.397Z,40.3
2023-05-24T08:06:53.655Z,40.6
2023-05-24T08:08:09.896Z,44.3
2023-05-24T08:09:26.144Z,39.5
2023-05-24T08:10:41.443Z,43.4
2023-05-24T08:11:57.695Z,40.7
2023-05-24T08:13:13.955Z,38.8
2023-05-24T08:14:30.194Z,38.4
2023-05-24T08:15:46.445Z,40.2
2023-05-24T08:17:02.699Z,34.1
2023-05-24T08:18:18.946Z,32
2023-05-24T08:19:35.193Z,35.6
2023-05-24T08:20:51.444Z,36.2
2023-05-24T08:22:07.696Z,27.6
2023-05-24T08:23:23.946Z,29.9
2023-05-24T08:24:40.202Z,31.7
2023-05-24T08:25:56.446Z,32.3
2023-05-24T08:27:11.767Z,29.2
2023-05-24T08:28:28.013Z,31.7
2023-05-24T08:29:44.254Z,30
2023-05-24T08:31:00.492Z,29.1
2023-05-24T08:32:16.749Z,28.4
2023-05-24T08:33:32.996Z,28.3
2023-05-24T08:34:40.000Z,29.9
2023-05-24T08:36:05.501Z,28.8
2023-05-24T08:37:21.749Z,28.9
2023-05-24T08:38:37.991Z,31.2
2023-05-24T08:39:45.000Z,31.6
2023-05-24T08:41:10.498Z,32.1
2023-05-24T08:42:26.754Z,28.9
2023-05-24T08:43:42.066Z,32.1
2023-05-24T08:44:58.308Z,33
2023-05-24T08:46:14.554Z,30.5
2023-05-24T08:47:30.808Z,32.8
2023-05-24T08:48:47.061Z,31.8
2023-05-24T08:50:03.307Z,32.8
2023-05-24T08:51:19.555Z,30.5
2023-05-24T08:52:35.811Z,28.8
2023-05-24T08:53:52.054Z,31.1
2023-05-24T08:55:08.305Z,32.1
2023-05-24T08:56:24.553Z,27.1
2023-05-24T08:57:40.812Z,28.2
2023-05-24T08:58:57.053Z,31.9
2023-05-24T09:00:12.357Z,29.8
2023-05-24T09:01:28.610Z,32.1
2023-05-24T09:02:44.854Z,28.8
2023-05-24T09:04:01.112Z,29.6
2023-05-24T09:05:17.352Z,28
2023-05-24T09:06:33.607Z,30.7
2023-05-24T09:07:49.859Z,29.2
2023-05-24T09:09:06.105Z,30.4
2023-05-24T09:10:22.349Z,28.2
2023-05-24T09:11:38.607Z,28.4
2023-05-24T09:12:54.860Z,29
2023-05-24T09:14:11.099Z,25.8
2023-05-24T09:15:27.360Z,28
2023-05-24T09:16:42.656Z,31.2
2023-05-24T09:17:58.910Z,28.6
2023-05-24T09:19:15.157Z,30.8
2023-05-24T09:20:31.399Z,28
2023-05-24T09:21:47.700Z,33.3
2023-05-24T09:23:03.925Z,29.9
2023-05-24T09:24:20.157Z,33
2023-05-24T09:25:36.404Z,28.9
2023-05-24T09:26:52.659Z,29.6
2023-05-24T09:28:08.907Z,30.8
2023-05-24T09:29:25.162Z,28.5
2023-05-24T09:30:41.405Z,26.3
2023-05-24T09:31:57.670Z,28.1
2023-05-24T09:33:12.962Z,31.1
2023-05-24T09:34:29.212Z,30.4
2023-05-24T09:35:45.463Z,27.1
2023-05-24T09:37:01.705Z,25.6
2023-05-24T09:38:17.967Z,30.4
2023-05-24T09:39:34.209Z,30.1
2023-05-24T09:40:50.460Z,29.8
2023-05-24T09:42:06.711Z,27.8
2023-05-24T09:43:22.963Z,27.9
2023-05-24T09:44:39.214Z,27.3
2023-05-24T09:45:55.468Z,30.9
2023-05-24T09:47:11.717Z,29.3
2023-05-24T09:48:27.965Z,27.9
2023-05-24T09:49:43.263Z,28.5
2023-05-24T09:50:59.508Z,32.1
2023-05-24T09:52:15.766Z,28.1
2023-05-24T09:54:48.282Z,27.5
2023-05-24T09:56:04.515Z,28.4
2023-05-24T09:57:20.768Z,27.4
2023-05-24T09:58:37.010Z,29.7
2023-05-24T09:59:53.278Z,28
2023-05-24T10:01:09.517Z,27.9
2023-05-24T10:02:25.767Z,29.6
2023-05-24T10:03:42.019Z,29.1
2023-05-24T10:04:58.259Z,27.2
2023-05-24T10:06:13.564Z,29.7
2023-05-24T10:07:29.809Z,32.3
2023-05-24T10:08:46.062Z,26.5
2023-05-24T10:10:02.317Z,30.7
2023-05-24T10:11:18.562Z,30
2023-05-24T10:12:34.810Z,28.1
2023-05-24T10:13:51.069Z,32.3
2023-05-24T10:15:07.313Z,28.7
2023-05-24T10:16:23.562Z,29.3
2023-05-24T10:17:39.811Z,28.2
2023-05-24T10:18:56.071Z,28.2
2023-05-24T10:20:12.318Z,31.5
2023-05-24T10:21:28.567Z,31.2
2023-05-24T10:22:44.820Z,30.1
2023-05-24T10:24:00.116Z,29.5
2023-05-24T10:25:16.362Z,30.8
2023-05-24T10:26:32.611Z,29.6
2023-05-24T10:27:48.868Z,33.4
2023-05-24T10:29:05.122Z,30.7
2023-05-24T10:30:21.363Z,27.1
2023-05-24T10:31:37.614Z,25.1
2023-05-24T10:32:53.858Z,27.7
2023-05-24T10:34:10.114Z,28.6
2023-05-24T10:35:26.365Z,28
2023-05-24T10:36:42.625Z,28
2023-05-24T10:37:58.869Z,28.1
2023-05-24T10:39:15.113Z,28.3
2023-05-24T10:40:30.420Z,31.4
2023-05-24T10:41:46.666Z,26.9
2023-05-24T10:43:02.907Z,29.8
2023-05-24T10:44:19.160Z,29.7
2023-05-24T10:45:35.409Z,31.7
2023-05-24T10:46:51.660Z,28.6
2023-05-24T10:48:07.914Z,31.1
2023-05-24T10:49:24.154Z,27.1
2023-05-24T10:50:40.406Z,30
2023-05-24T10:51:56.646Z,28.9
2023-05-24T10:53:12.897Z,29.3
2023-05-24T10:54:29.149Z,29.3
2023-05-24T10:55:45.403Z,28.1
2023-05-24T10:57:00.693Z,25.9
2023-05-24T10:58:16.937Z,27.7
2023-05-24T10:59:33.190Z,27.4
2023-05-24T11:00:49.435Z,28.5
2023-05-24T11:02:04.761Z,25.4
2023-05-24T11:03:21.009Z,32.1
2023-05-24T11:04:37.256Z,28.9
2023-05-24T11:05:53.497Z,26.8
2023-05-24T11:07:09.747Z,28.8
2023-05-24T11:08:26.000Z,28
2023-05-24T11:09:42.251Z,27.6
2023-05-24T11:10:58.497Z,26
2023-05-24T11:13:30.998Z,29.9
2023-05-24T11:14:47.236Z,27.8
2023-05-24T11:16:03.504Z,25.1
2023-05-24T11:17:19.737Z,28.7
2023-05-24T11:18:35.033Z,28
2023-05-24T11:19:51.289Z,31.2
2023-05-24T11:21:07.540Z,28
2023-05-24T11:22:23.777Z,30.3
2023-05-24T11:23:40.028Z,27.1
2023-05-24T11:24:56.280Z,28.3
2023-05-24T11:26:12.518Z,27.6
2023-05-24T11:28:45.050Z,29.3
2023-05-24T11:30:01.280Z,28.9
2023-05-24T11:31:17.523Z,24.3
2023-05-24T11:32:33.770Z,26
2023-05-24T11:33:50.024Z,29.8
2023-05-24T11:35:05.320Z,27.9
2023-05-24T11:36:21.578Z,29.4
2023-05-24T11:37:37.815Z,29
2023-05-24T11:38:54.067Z,26.7
2023-05-24T11:40:10.309Z,25.6
2023-05-24T11:41:26.558Z,29.2
2023-05-24T11:42:42.812Z,25.3
2023-05-24T11:43:59.053Z,28.7
2023-05-24T11:45:06.000Z,27.1
2023-05-24T11:46:31.555Z,27.5
2023-05-24T11:47:47.807Z,25.6
2023-05-24T11:49:04.049Z,22.8
2023-05-24T11:50:20.303Z,28.2
2023-05-24T11:51:35.633Z,26.6
2023-05-24T11:52:51.846Z,29.5
2023-05-24T11:54:08.097Z,30.9
2023-05-24T11:55:24.342Z,33
2023-05-24T11:56:40.612Z,27.5
2023-05-24T11:57:56.839Z,32
2023-05-24T11:59:13.082Z,26.9
2023-05-24T12:00:29.336Z,29.2
2023-05-24T12:01:45.584Z,26.8
2023-05-24T12:03:01.827Z,29.4
2023-05-24T12:04:18.082Z,27.1
2023-05-24T12:05:34.331Z,26
2023-05-24T12:06:50.579Z,28.6
2023-05-24T12:08:05.879Z,27.3
2023-05-24T12:09:22.138Z,28.9
2023-05-24T12:10:38.387Z,29.7
2023-05-24T12:11:54.637Z,28
2023-05-24T12:13:10.889Z,26.5
2023-05-24T12:14:27.124Z,30.3
2023-05-24T12:15:43.371Z,28.4
2023-05-24T12:16:59.627Z,27.4
2023-05-24T12:18:15.874Z,27.2
2023-05-24T12:19:32.124Z,26.8
2023-05-24T12:20:48.366Z,26.5
2023-05-24T12:22:04.622Z,29.7
2023-05-24T12:23:11.000Z,28
2023-05-24T12:24:36.174Z,27.7
2023-05-24T12:25:52.415Z,27.2
2023-05-24T12:27:08.668Z,28.7
2023-05-24T12:28:24.921Z,27.9
2023-05-24T12:29:41.184Z,28.2
2023-05-24T12:30:57.415Z,27.8
2023-05-24T12:32:13.660Z,27.3
2023-05-24T12:33:29.909Z,25.2
2023-05-24T12:34:46.166Z,28.7
2023-05-24T12:36:02.420Z,27.1
2023-05-24T12:37:18.676Z,26.3
2023-05-24T12:38:25.000Z,27.8
2023-05-24T12:39:51.152Z,26.2
2023-05-24T12:41:06.449Z,31
2023-05-24T12:42:13.000Z,25
2023-05-24T12:43:38.950Z,26.2
2023-05-24T12:44:55.201Z,27.5
2023-05-24T12:46:11.450Z,27.5
2023-05-24T12:47:27.691Z,27.6
2023-05-24T12:48:43.940Z,30.5
2023-05-24T12:50:00.188Z,28.8
2023-05-24T12:51:16.446Z,26.6
2023-05-24T12:52:32.688Z,27.5
2023-05-24T12:53:48.933Z,28.7
2023-05-24T12:55:05.185Z,28.7
2023-05-24T12:56:21.454Z,26
2023-05-24T12:57:36.730Z,27.5
2023-05-24T12:58:52.978Z,27.6
2023-05-24T13:00:09.223Z,27.4
2023-05-24T13:01:25.471Z,31.8
2023-05-24T13:02:41.725Z,26.5
2023-05-24T13:03:57.974Z,27.3
2023-05-24T13:05:14.224Z,28
2023-05-24T13:06:30.472Z,28.7
2023-05-24T13:07:46.720Z,25.9
2023-05-24T13:09:02.964Z,26.7
2023-05-24T13:10:19.214Z,27.9
2023-05-24T13:11:35.468Z,24.1
2023-05-24T13:12:51.709Z,28.8
2023-05-24T13:14:07.966Z,26.6
2023-05-24T13:15:23.256Z,27.9
2023-05-24T13:16:39.510Z,27.6
2023-05-24T13:17:55.754Z,30.2
2023-05-24T13:19:12.019Z,24.9
2023-05-24T13:20:28.249Z,27.8
2023-05-24T13:21:44.512Z,26.1
2023-05-24T13:23:00.748Z,31.3
2023-05-24T13:24:16.999Z,29.7
2023-05-24T13:25:33.249Z,31
2023-05-24T13:26:49.501Z,26.3
2023-05-24T13:27:56.000Z,28.3
2023-05-24T13:29:21.998Z,31.2
2023-05-24T13:30:38.244Z,28.5
2023-05-24T13:31:53.536Z,28.9
2023-05-24T13:33:09.787Z,28.6
2023-05-24T13:34:26.038Z,27.4
2023-05-24T13:35:42.281Z,28.8
2023-05-24T13:36:58.538Z,28.4
2023-05-24T13:38:14.784Z,28.1
2023-05-24T13:39:31.033Z,27.7
2023-05-24T13:40:47.286Z,29.1
2023-05-24T13:42:03.538Z,30.8
2023-05-24T13:43:19.779Z,26
2023-05-24T13:44:36.051Z,30.6
2023-05-24T13:45:52.274Z,26.4
2023-05-24T13:47:08.533Z,28.6
2023-05-24T13:48:23.830Z,28.9
2023-05-24T13:49:40.069Z,27.5
2023-05-24T13:50:56.321Z,29.1
2023-05-24T13:52:12.561Z,26.5
2023-05-24T13:53:28.812Z,28.3
2023-05-24T13:54:45.071Z,31
2023-05-24T13:56:01.317Z,26.8
2023-05-24T13:57:17.555Z,26.6
2023-05-24T13:58:33.816Z,28.5
2023-05-24T13:59:50.058Z,24.8
2023-05-24T14:01:06.310Z,25.7
2023-05-24T14:02:22.556Z,28.1
2023-05-24T14:03:38.806Z,26
2023-05-24T14:04:54.106Z,25.7
2023-05-24T14:06:10.357Z,26.4
2023-05-24T14:07:26.596Z,25.4
2023-05-24T14:08:42.839Z,26.2
2023-05-24T14:09:59.133Z,27.5
2023-05-24T14:11:15.347Z,26
2023-05-24T14:12:31.592Z,26.6
2023-05-24T14:13:47.846Z,26.9
2023-05-24T14:15:04.092Z,27.5
2023-05-24T14:16:20.336Z,25
2023-05-24T14:17:36.588Z,27.6
2023-05-24T14:18:52.835Z,27.2
2023-05-24T14:20:09.083Z,27
2023-05-24T14:21:24.384Z,25.5
2023-05-24T14:22:40.631Z,23.6
2023-05-24T14:23:56.879Z,27.6
2023-05-24T14:25:13.127Z,27.3
2023-05-24T14:27:45.634Z,27.2
2023-05-24T14:29:01.905Z,26.9
2023-05-24T14:30:18.117Z,27.4
2023-05-24T14:31:34.368Z,25.9
2023-05-24T14:32:50.621Z,25.7
2023-05-24T14:34:06.862Z,27.3
2023-05-24T14:35:23.115Z,29.6
2023-05-24T14:36:39.371Z,27.6
2023-05-24T14:37:54.673Z,26.5
2023-05-24T14:39:10.920Z,28.7
2023-05-24T14:40:27.165Z,27.2
2023-05-24T14:41:43.416Z,26.2
2023-05-24T14:42:59.661Z,26.1
2023-05-24T14:44:15.908Z,26.7
2023-05-24T14:45:32.168Z,29.3
2023-05-24T14:46:48.409Z,28.8
2023-05-24T14:48:04.663Z,26.8
2023-05-24T14:49:20.907Z,28.4
2023-05-24T14:50:37.160Z,27.8
2023-05-24T14:51:53.409Z,30.2
2023-05-24T14:53:09.660Z,26.9
2023-05-24T14:54:24.955Z,28.7
2023-05-24T14:55:41.202Z,25.8
2023-05-24T14:56:57.454Z,28.1
2023-05-24T14:58:13.693Z,31.5
2023-05-24T14:59:29.946Z,26.6
2023-05-24T15:02:02.437Z,29.4
2023-05-24T15:03:18.711Z,27.9
2023-05-24T15:04:34.941Z,26.2
2023-05-24T15:05:51.188Z,27.3
2023-05-24T15:07:07.436Z,26
2023-05-24T15:08:23.692Z,29.4
2023-05-24T15:09:39.931Z,27.9
2023-05-24T15:10:55.234Z,27.2
2023-05-24T15:12:11.481Z,27
2023-05-24T15:13:27.725Z,29.2
2023-05-24T15:14:43.976Z,26
2023-05-24T15:16:00.225Z,29
2023-05-24T15:17:15.548Z,27.6
2023-05-24T15:18:31.792Z,29.1
2023-05-24T15:19:48.038Z,28.7
2023-05-24T15:21:04.289Z,25.7
2023-05-24T15:22:20.541Z,26.6
2023-05-24T15:23:36.783Z,27.6
2023-05-24T15:24:53.033Z,27.1
2023-05-24T15:26:09.278Z,26.7
2023-05-24T15:27:25.532Z,25.6
2023-05-24T15:28:41.772Z,29.9
2023-05-24T15:29:58.029Z,24.6
2023-05-24T15:31:14.279Z,25.7
2023-05-24T15:32:30.524Z,25.4
2023-05-24T15:33:45.820Z,26.7
2023-05-24T15:35:02.064Z,27.5
2023-05-24T15:36:18.322Z,27.3
2023-05-24T15:37:34.569Z,23.8
2023-05-24T15:38:50.831Z,24.6
2023-05-24T15:40:07.066Z,26.1
2023-05-24T15:41:23.316Z,26
2023-05-24T15:42:39.564Z,24.4
2023-05-24T15:43:55.817Z,27.1
2023-05-24T15:45:12.058Z,27
2023-05-24T15:46:28.312Z,23.6
2023-05-24T15:47:44.553Z,23.9
2023-05-24T15:48:51.000Z,25.2
2023-05-24T15:50:16.115Z,25.6
2023-05-24T15:51:32.367Z,23.8
2023-05-24T15:52:48.618Z,25.1
2023-05-24T15:54:04.860Z,26.6
2023-05-24T15:55:21.106Z,25.9
2023-05-24T15:56:37.354Z,23.4
2023-05-24T15:57:53.610Z,24.7
2023-05-24T15:59:09.850Z,25.2
2023-05-24T16:00:26.097Z,27.5
2023-05-24T16:01:42.348Z,25.8
2023-05-24T16:02:58.593Z,25.1
2023-05-24T16:04:14.847Z,25.6
2023-05-24T16:05:31.093Z,26.6
2023-05-24T16:06:46.390Z,22.3
2023-05-24T16:08:02.634Z,24.8
2023-05-24T16:09:18.887Z,22.9
2023-05-24T16:10:35.132Z,22.5
2023-05-24T16:11:51.385Z,23
2023-05-24T16:13:07.630Z,26
2023-05-24T16:14:23.882Z,24.7
2023-05-24T16:15:40.134Z,22.5
2023-05-24T16:16:56.380Z,27.1
2023-05-24T16:18:12.627Z,22.7
2023-05-24T16:19:28.876Z,22.5
2023-05-24T16:20:45.121Z,23.9
2023-05-24T16:22:01.374Z,22.7
2023-05-24T16:23:16.671Z,23.7
2023-05-24T16:24:32.920Z,25.9
2023-05-24T16:25:49.174Z,23.7
2023-05-24T16:27:05.414Z,25.5
2023-05-24T16:28:21.659Z,24.6
2023-05-24T16:29:37.912Z,25.2
2023-05-24T16:30:54.177Z,27
2023-05-24T16:32:10.414Z,24.4
2023-05-24T16:33:26.658Z,24.7
2023-05-24T16:34:42.910Z,25.5
2023-05-24T16:35:59.160Z,24.8
2023-05-24T16:37:15.417Z,23.7
2023-05-24T16:38:31.653Z,25.6
2023-05-24T16:39:46.946Z,23
2023-05-24T16:41:03.215Z,25.3
2023-05-24T16:42:19.441Z,24.8
2023-05-24T16:43:35.688Z,28.9
2023-05-24T16:44:51.938Z,23.1
2023-05-24T16:46:08.196Z,24.1
2023-05-24T16:47:24.442Z,25.9
2023-05-24T16:48:40.684Z,24.4
2023-05-24T16:49:56.933Z,21.9
2023-05-24T16:51:13.194Z,25.5
2023-05-24T16:52:29.445Z,25
2023-05-24T16:53:45.683Z,24.3
2023-05-24T16:55:01.930Z,24.6
2023-05-24T16:56:17.230Z,26.3
2023-05-24T16:57:33.480Z,20.5
2023-05-24T16:58:49.723Z,25
2023-05-24T17:00:05.975Z,22.4
2023-05-24T17:01:22.224Z,24.7
2023-05-24T17:02:38.465Z,24
2023-05-24T17:03:54.718Z,23.8
2023-05-24T17:05:10.961Z,27.9
2023-05-24T17:06:27.217Z,23.5
2023-05-24T17:07:43.456Z,23.1
2023-05-24T17:08:59.712Z,23.1
2023-05-24T17:10:15.959Z,24.1
2023-05-24T17:11:32.211Z,21.6
2023-05-24T17:12:47.504Z,22.1
2023-05-24T17:14:03.764Z,23.6